Time;durP1;ratioP1;P1;durP2;ratioP2;P2;SDS_P1;SDS_P2;PMS_P1;PMS_P2;Temp;Humidity;BMP_temperature;BMP_pressure;BME280_temperature;BME280_humidity;BME280_pressure;Samples;Min_cycle;Max_cycle;Signal;HPM_P1;HPM_P2
2023/08/19 00:00:59;;;;;;;30.98;25.60;;;20.80;99.90;;;;;;5073738;28;20102;-76
2023/08/19 00:03:25;;;;;;;29.15;25.20;;;20.80;99.90;;;;;;5075415;28;20044;-77
2023/08/19 00:05:51;;;;;;;30.00;26.13;;;20.70;99.90;;;;;;5074441;28;20125;-76
2023/08/19 00:08:17;;;;;;;29.35;26.15;;;20.70;99.90;;;;;;5073522;28;20044;-77
2023/08/19 00:10:43;;;;;;;27.88;24.98;;;20.70;99.90;;;;;;5073958;28;20040;-76
2023/08/19 00:13:09;;;;;;;30.85;27.35;;;20.70;99.90;;;;;;5073504;28;20041;-77
2023/08/19 00:15:34;;;;;;;32.97;26.25;;;20.70;99.90;;;;;;5073328;28;20048;-76
2023/08/19 00:18:01;;;;;;;28.00;24.63;;;20.60;99.90;;;;;;5074776;28;20044;-76
2023/08/19 00:20:28;;;;;;;28.88;25.77;;;20.60;99.90;;;;;;5075291;28;20059;-77
2023/08/19 00:22:57;;;;;;;34.13;26.88;;;20.60;99.90;;;;;;5075852;28;20045;-76
2023/08/19 00:25:24;;;;;;;36.55;27.40;;;20.60;99.90;;;;;;5075091;28;20044;-76
2023/08/19 00:27:51;;;;;;;31.63;25.98;;;20.60;99.90;;;;;;5073460;28;20479;-76
2023/08/19 00:30:17;;;;;;;33.13;26.40;;;20.50;99.90;;;;;;5074500;28;20045;-77
2023/08/19 00:32:44;;;;;;;27.63;24.50;;;20.50;99.90;;;;;;5074769;28;20047;-76
2023/08/19 00:35:10;;;;;;;31.00;25.90;;;20.50;99.90;;;;;;5073388;28;20056;-76
2023/08/19 00:37:36;;;;;;;29.75;26.40;;;20.50;99.90;;;;;;5056989;28;20048;-75
2023/08/19 00:40:05;;;;;;;28.52;25.48;;;20.50;99.90;;;;;;5073162;28;20036;-76
2023/08/19 00:42:31;;;;;;;29.42;26.33;;;20.50;99.90;;;;;;5074332;28;20048;-76
2023/08/19 00:44:57;;;;;;;31.05;27.45;;;20.50;99.90;;;;;;5074411;28;20360;-76
2023/08/19 00:47:24;;;;;;;31.05;26.50;;;20.50;99.90;;;;;;5088692;28;20080;-77
2023/08/19 00:49:50;;;;;;;33.30;24.15;;;20.40;99.90;;;;;;5094737;28;20044;-75
2023/08/19 00:52:17;;;;;;;26.88;23.88;;;20.40;99.90;;;;;;5086360;28;20093;-76
2023/08/19 00:54:43;;;;;;;34.72;23.70;;;20.40;99.90;;;;;;5074456;28;20137;-75
2023/08/19 00:57:09;;;;;;;29.10;24.38;;;20.40;99.90;;;;;;5074963;28;20040;-76
2023/08/19 00:59:35;;;;;;;32.10;25.98;;;20.40;99.90;;;;;;5072805;28;20060;-76
2023/08/19 01:02:01;;;;;;;30.67;25.88;;;20.40;99.90;;;;;;5074180;28;20400;-76
2023/08/19 01:04:27;;;;;;;27.92;23.90;;;20.40;99.90;;;;;;5073132;28;20098;-76
2023/08/19 01:07:24;;;;;;;30.35;25.83;;;20.30;99.90;;;;;;5074801;28;20080;-77
2023/08/19 01:09:53;;;;;;;30.55;24.23;;;20.30;99.90;;;;;;5073833;28;20047;-76
2023/08/19 01:12:31;;;;;;;31.33;24.88;;;20.30;99.90;;;;;;5072815;28;20036;-77
2023/08/19 01:15:09;;;;;;;31.67;25.85;;;20.30;99.90;;;;;;5073927;28;20044;-76
2023/08/19 01:17:36;;;;;;;25.33;22.70;;;20.30;99.90;;;;;;5073323;28;20052;-76
2023/08/19 01:20:03;;;;;;;31.17;24.27;;;20.20;99.90;;;;;;5073733;28;20097;-77
2023/08/19 01:22:51;;;;;;;27.85;24.10;;;20.30;99.90;;;;;;5107113;27;20062;-77
2023/08/19 01:25:18;;;;;;;25.42;22.77;;;20.20;99.90;;;;;;5072814;28;20444;-76
2023/08/19 01:27:43;;;;;;;25.23;22.60;;;20.20;99.90;;;;;;5072830;28;20048;-76
2023/08/19 01:30:09;;;;;;;30.00;25.77;;;20.20;99.90;;;;;;5072709;28;20398;-76
2023/08/19 01:32:36;;;;;;;25.00;22.13;;;20.20;99.90;;;;;;5072522;28;20405;-76
2023/08/19 01:35:02;;;;;;;26.48;23.65;;;20.20;99.90;;;;;;5072624;28;20052;-76
2023/08/19 01:37:46;;;;;;;26.20;21.52;;;20.10;99.90;;;;;;5072664;28;20440;-76
2023/08/19 01:40:15;;;;;;;29.25;22.63;;;20.10;99.90;;;;;;5072847;28;20402;-76
2023/08/19 01:42:41;;;;;;;25.83;22.17;;;20.10;99.90;;;;;;5073674;28;20380;-76
2023/08/19 01:45:08;;;;;;;26.75;21.10;;;20.10;99.90;;;;;;5074023;28;20075;-76
2023/08/19 01:47:40;;;;;;;25.88;22.25;;;20.10;99.90;;;;;;5072754;28;20076;-75
2023/08/19 01:50:06;;;;;;;27.00;23.13;;;20.10;99.90;;;;;;5073920;28;20044;-74
2023/08/19 01:52:33;;;;;;;25.70;22.80;;;20.10;99.90;;;;;;5056624;28;20044;-75
2023/08/19 01:54:59;;;;;;;27.15;24.23;;;20.10;99.90;;;;;;5055959;28;20067;-75
2023/08/19 01:57:26;;;;;;;33.03;25.73;;;20.00;99.90;;;;;;5074197;28;20075;-75
2023/08/19 01:59:52;;;;;;;29.00;23.17;;;20.00;99.90;;;;;;5072739;28;20113;-75
2023/08/19 02:02:18;;;;;;;29.92;22.85;;;20.00;99.90;;;;;;5073386;28;20082;-75
2023/08/19 02:04:43;;;;;;;30.58;25.52;;;20.00;99.90;;;;;;5072604;28;20441;-75
2023/08/19 02:07:09;;;;;;;26.25;23.40;;;20.00;99.90;;;;;;5073809;28;20044;-76
2023/08/19 02:09:35;;;;;;;30.80;24.25;;;20.00;99.90;;;;;;5073712;28;20539;-76
2023/08/19 02:12:00;;;;;;;26.33;21.98;;;19.90;99.90;;;;;;5073949;28;20036;-76
2023/08/19 02:14:26;;;;;;;25.60;22.20;;;20.00;99.90;;;;;;5072586;28;20055;-76
2023/08/19 02:16:52;;;;;;;25.13;22.55;;;19.90;99.90;;;;;;5073931;28;20043;-75
2023/08/19 02:19:17;;;;;;;26.17;23.40;;;19.90;99.90;;;;;;5072167;28;20037;-77
2023/08/19 02:21:43;;;;;;;30.17;25.48;;;19.90;99.90;;;;;;5106319;28;20051;-76
2023/08/19 02:24:09;;;;;;;28.02;23.65;;;19.90;99.90;;;;;;5072404;28;20151;-75
2023/08/19 02:26:34;;;;;;;30.55;25.17;;;19.90;99.90;;;;;;5073311;28;20044;-76
2023/08/19 02:29:00;;;;;;;33.92;27.70;;;19.90;99.90;;;;;;5072165;28;20083;-76
2023/08/19 02:31:26;;;;;;;28.55;25.10;;;19.90;99.90;;;;;;5073358;28;20078;-75
2023/08/19 02:33:52;;;;;;;28.67;23.85;;;19.90;99.90;;;;;;5073396;28;20059;-76
2023/08/19 02:36:19;;;;;;;28.95;23.55;;;20.00;99.90;;;;;;5073539;28;20049;-76
2023/08/19 02:38:44;;;;;;;29.48;24.75;;;19.90;99.90;;;;;;5073542;28;20123;-76
2023/08/19 02:41:11;;;;;;;32.90;26.58;;;19.90;99.90;;;;;;5073511;28;20068;-75
2023/08/19 02:43:37;;;;;;;37.80;27.63;;;19.90;99.90;;;;;;5073416;28;20124;-76
2023/08/19 02:46:04;;;;;;;29.40;24.80;;;19.90;99.90;;;;;;5074200;28;20115;-76
2023/08/19 02:48:30;;;;;;;33.70;26.50;;;20.00;99.90;;;;;;5073834;28;20037;-75
2023/08/19 02:50:56;;;;;;;33.35;26.33;;;20.00;99.90;;;;;;5055615;28;20453;-76
2023/08/19 02:53:22;;;;;;;33.80;24.70;;;20.00;99.90;;;;;;5074005;28;20045;-76
2023/08/19 02:55:54;;;;;;;34.95;27.73;;;20.00;99.90;;;;;;5073395;28;20036;-76
2023/08/19 02:58:19;;;;;;;34.50;27.00;;;20.00;99.90;;;;;;5073328;28;20062;-75
2023/08/19 03:00:46;;;;;;;33.00;27.80;;;20.00;99.90;;;;;;5073541;28;20453;-76
2023/08/19 03:03:12;;;;;;;34.67;26.52;;;20.00;99.90;;;;;;5073883;28;20384;-76
2023/08/19 03:05:38;;;;;;;34.22;27.20;;;20.00;99.90;;;;;;5073070;28;20052;-76
2023/08/19 03:08:05;;;;;;;37.08;27.48;;;19.90;99.90;;;;;;5091403;28;20048;-77
2023/08/19 03:10:37;;;;;;;33.20;28.65;;;20.00;99.90;;;;;;5092039;28;20087;-76
2023/08/19 03:13:04;;;;;;;38.15;29.60;;;20.00;99.90;;;;;;5093519;28;20040;-75
2023/08/19 03:15:32;;;;;;;33.45;27.50;;;20.00;99.90;;;;;;5085724;28;20044;-76
2023/08/19 03:17:57;;;;;;;37.08;29.30;;;20.00;99.90;;;;;;5071844;28;20052;-76
2023/08/19 03:20:23;;;;;;;31.73;26.40;;;20.00;99.90;;;;;;5073073;28;20056;-75
2023/08/19 03:22:49;;;;;;;34.63;28.05;;;20.00;99.90;;;;;;5073516;28;20048;-76
2023/08/19 03:25:15;;;;;;;35.30;26.92;;;20.00;99.90;;;;;;5071460;28;20514;-76
2023/08/19 03:27:41;;;;;;;32.85;25.63;;;20.00;99.90;;;;;;5073116;28;20545;-76
2023/08/19 03:30:07;;;;;;;31.60;26.70;;;20.00;99.90;;;;;;5072886;28;20076;-76
2023/08/19 03:32:33;;;;;;;33.22;26.25;;;20.00;99.90;;;;;;5071470;28;20083;-76
2023/08/19 03:34:58;;;;;;;35.45;26.52;;;20.00;99.90;;;;;;5092695;28;20040;-76
2023/08/19 03:37:24;;;;;;;29.15;25.85;;;19.90;99.90;;;;;;5091484;28;20054;-76
2023/08/19 03:39:50;;;;;;;34.55;28.17;;;20.00;99.90;;;;;;5090170;28;20401;-76
2023/08/19 03:42:16;;;;;;;33.88;27.67;;;20.00;99.90;;;;;;5074355;28;20041;-77
2023/08/19 03:44:42;;;;;;;35.15;28.00;;;19.90;99.90;;;;;;5058123;28;20482;-76
2023/08/19 03:47:12;;;;;;;36.28;28.70;;;20.00;99.90;;;;;;5075896;28;20043;-76
2023/08/19 03:49:38;;;;;;;34.78;27.42;;;19.90;99.90;;;;;;5075909;28;20048;-76
2023/08/19 03:52:07;;;;;;;33.95;27.50;;;19.90;99.90;;;;;;5074514;28;20398;-76
2023/08/19 03:54:33;;;;;;;32.75;25.05;;;19.90;99.90;;;;;;5076165;28;20040;-76
2023/08/19 03:56:59;;;;;;;33.13;24.65;;;19.90;99.90;;;;;;5094623;28;20055;-76
2023/08/19 03:59:24;;;;;;;31.38;25.05;;;19.90;99.90;;;;;;5092236;28;20051;-76
2023/08/19 04:01:50;;;;;;;33.13;26.75;;;19.90;99.90;;;;;;5075940;28;20479;-76
2023/08/19 04:04:16;;;;;;;27.88;24.27;;;19.90;99.90;;;;;;5075917;28;20048;-76
2023/08/19 04:06:41;;;;;;;33.85;26.05;;;19.90;99.90;;;;;;5075779;28;20037;-76
2023/08/19 04:09:08;;;;;;;30.27;24.27;;;19.90;99.90;;;;;;5074849;28;20041;-76
2023/08/19 04:11:33;;;;;;;29.23;24.25;;;19.90;99.90;;;;;;5075364;28;20560;-75
2023/08/19 04:13:59;;;;;;;32.13;24.52;;;19.90;99.90;;;;;;5095961;28;20075;-75
2023/08/19 04:16:25;;;;;;;34.13;24.45;;;19.90;99.90;;;;;;5082017;28;20090;-76
2023/08/19 04:18:51;;;;;;;34.30;26.40;;;19.90;99.90;;;;;;5073708;28;20049;-76
2023/08/19 04:21:17;;;;;;;32.85;25.55;;;19.90;99.90;;;;;;5074193;28;20453;-76
2023/08/19 04:23:43;;;;;;;29.95;24.25;;;19.90;99.90;;;;;;5074330;28;20449;-75
2023/08/19 04:26:09;;;;;;;29.00;24.30;;;19.90;99.90;;;;;;5074282;28;20037;-76
2023/08/19 04:28:35;;;;;;;28.48;24.45;;;19.90;99.90;;;;;;5075470;28;20040;-76
2023/08/19 04:31:04;;;;;;;32.67;25.58;;;19.90;99.90;;;;;;5057326;28;20379;-76
2023/08/19 04:33:31;;;;;;;28.67;23.90;;;19.90;99.90;;;;;;5085141;28;20113;-76
2023/08/19 04:35:57;;;;;;;30.88;24.15;;;19.90;99.90;;;;;;5095175;28;20404;-75
2023/08/19 04:38:23;;;;;;;32.40;22.70;;;19.90;99.90;;;;;;5094820;28;20119;-76
2023/08/19 04:40:50;;;;;;;28.15;23.90;;;19.90;99.90;;;;;;5093984;28;20474;-75
2023/08/19 04:43:18;;;;;;;28.92;23.13;;;19.90;99.90;;;;;;5094129;28;20498;-75
2023/08/19 04:45:44;;;;;;;;;;;19.90;99.90;;;;;;5095795;28;20043;-75
2023/08/19 04:48:09;;;;;;;27.55;23.08;;;19.90;99.90;;;;;;5082606;28;19924;-76
2023/08/19 04:50:35;;;;;;;32.90;23.17;;;19.90;99.90;;;;;;5074763;28;20421;-75
2023/08/19 04:53:01;;;;;;;28.33;22.30;;;20.00;99.90;;;;;;5074859;28;20372;-75
2023/08/19 04:55:27;;;;;;;28.65;22.20;;;20.00;99.90;;;;;;5057002;28;20056;-76
2023/08/19 04:57:53;;;;;;;30.83;21.50;;;20.00;99.90;;;;;;5073442;28;20044;-75
2023/08/19 05:00:19;;;;;;;24.10;21.50;;;20.10;99.90;;;;;;5074857;28;20128;-75
2023/08/19 05:02:45;;;;;;;29.08;23.70;;;20.10;99.90;;;;;;5074847;28;20045;-77
2023/08/19 05:05:10;;;;;;;27.90;22.42;;;20.10;99.90;;;;;;5090062;28;20166;-76
2023/08/19 05:07:36;;;;;;;28.17;22.08;;;20.20;99.90;;;;;;5082775;28;20090;-76
2023/08/19 05:10:02;;;;;;;26.73;21.20;;;20.20;99.90;;;;;;5074816;28;20067;-77
2023/08/19 05:12:28;;;;;;;25.90;20.38;;;20.30;99.90;;;;;;5074774;28;20040;-76
2023/08/19 05:14:53;;;;;;;26.00;20.40;;;20.30;99.90;;;;;;5075603;28;20040;-78
2023/08/19 05:17:19;;;;;;;25.02;20.15;;;20.30;99.90;;;;;;5069885;28;20055;-77
2023/08/19 05:19:45;;;;;;;25.70;19.98;;;20.30;99.90;;;;;;5095131;28;20052;-75
2023/08/19 05:22:10;;;;;;;22.63;19.33;;;20.40;99.90;;;;;;5086058;28;20052;-76
2023/08/19 05:24:36;;;;;;;27.30;19.60;;;20.40;99.90;;;;;;5075279;28;20036;-75
2023/08/19 05:27:02;;;;;;;25.10;18.65;;;20.40;99.90;;;;;;5073489;28;20149;-75
2023/08/19 05:29:28;;;;;;;21.88;18.60;;;20.40;99.90;;;;;;5073141;28;20100;-76
2023/08/19 05:31:55;;;;;;;25.30;18.55;;;20.50;99.90;;;;;;5074882;28;20170;-76
2023/08/19 05:34:21;;;;;;;20.27;17.30;;;20.50;99.90;;;;;;5074908;28;20044;-76
2023/08/19 05:36:47;;;;;;;22.27;18.50;;;20.50;99.90;;;;;;5074425;28;20549;-76
2023/08/19 05:39:13;;;;;;;20.77;17.75;;;20.50;99.90;;;;;;5074485;28;20059;-76
2023/08/19 05:41:38;;;;;;;20.60;17.67;;;20.60;99.90;;;;;;5073040;28;20045;-77
2023/08/19 05:44:05;;;;;;;21.50;17.52;;;20.60;99.90;;;;;;5087982;28;20504;-74
2023/08/19 05:46:30;;;;;;;18.20;15.88;;;20.60;99.90;;;;;;5076222;28;20048;-75
2023/08/19 05:48:56;;;;;;;19.92;16.40;;;20.60;99.90;;;;;;5092952;28;20113;-76
2023/08/19 05:51:22;;;;;;;23.95;17.88;;;20.70;99.90;;;;;;5094336;28;20105;-75
2023/08/19 05:53:47;;;;;;;22.70;17.40;;;20.70;99.90;;;;;;5093068;28;20075;-76
2023/08/19 05:56:13;;;;;;;31.00;16.88;;;20.80;99.90;;;;;;5094179;28;20438;-76
2023/08/19 05:58:39;;;;;;;20.13;16.20;;;20.80;99.90;;;;;;5092774;28;20040;-76
2023/08/19 06:01:08;;;;;;;27.48;16.90;;;20.80;99.90;;;;;;5093870;28;20414;-76
2023/08/19 06:03:34;;;;;;;22.85;17.40;;;20.90;99.90;;;;;;5106324;27;20098;-75
2023/08/19 06:06:05;;;;;;;22.20;16.52;;;20.90;99.90;;;;;;5073261;28;20111;-75
2023/08/19 06:08:30;;;;;;;19.13;16.35;;;20.90;99.90;;;;;;5055707;28;20048;-74
2023/08/19 06:11:07;;;;;;;19.95;16.27;;;21.00;99.90;;;;;;5055357;28;20399;-75
2023/08/19 06:13:34;;;;;;;20.02;15.95;;;21.00;99.90;;;;;;5072251;28;20048;-75
2023/08/19 06:16:00;;;;;;;21.42;16.00;;;21.00;99.90;;;;;;5073249;28;20048;-76
2023/08/19 06:18:26;;;;;;;18.17;16.13;;;21.10;99.90;;;;;;5073663;28;20059;-75
2023/08/19 06:20:55;;;;;;;16.80;14.18;;;21.20;99.90;;;;;;5073116;28;20040;-76
2023/08/19 06:23:25;;;;;;;17.08;14.52;;;21.20;99.90;;;;;;5075590;28;20131;-76
2023/08/19 06:25:52;;;;;;;21.33;14.98;;;21.20;99.90;;;;;;5094042;28;20052;-76
2023/08/19 06:28:18;;;;;;;17.88;14.70;;;21.30;99.90;;;;;;5093707;28;20036;-76
2023/08/19 06:30:45;;;;;;;19.98;14.68;;;21.30;99.90;;;;;;5076715;28;20051;-75
2023/08/19 06:33:12;;;;;;;18.52;15.05;;;21.30;99.90;;;;;;5073704;28;20494;-75
2023/08/19 06:35:38;;;;;;;23.10;14.52;;;21.40;99.90;;;;;;5072191;28;20045;-75
2023/08/19 06:38:08;;;;;;;18.23;13.90;;;21.40;99.90;;;;;;5073628;28;20044;-75
2023/08/19 06:40:36;;;;;;;18.00;13.68;;;21.40;99.90;;;;;;5055452;28;20045;-76
2023/08/19 06:43:03;;;;;;;14.60;12.82;;;21.50;99.90;;;;;;5072079;28;20045;-77
2023/08/19 06:45:29;;;;;;;;;;;21.50;99.90;;;;;;5074280;28;20049;-76
2023/08/19 06:47:57;;;;;;;14.27;12.55;;;21.50;99.90;;;;;;5055480;28;20457;-75
2023/08/19 06:50:23;;;;;;;15.77;13.35;;;21.40;99.90;;;;;;5073955;28;20098;-75
2023/08/19 06:52:49;;;;;;;19.48;14.00;;;21.40;99.90;;;;;;5073644;28;20044;-74
2023/08/19 06:55:16;;;;;;;20.75;14.50;;;21.40;99.90;;;;;;5073670;28;20088;-75
2023/08/19 06:58:03;;;;;;;21.17;14.07;;;21.40;99.90;;;;;;5073908;28;20067;-75
2023/08/19 07:00:30;;;;;;;17.30;13.60;;;21.40;99.90;;;;;;5073955;28;20094;-75
2023/08/19 07:02:57;;;;;;;19.65;14.07;;;21.40;99.90;;;;;;5075756;28;20044;-74
2023/08/19 07:05:24;;;;;;;16.83;14.05;;;21.40;99.90;;;;;;5078209;28;20123;-74
2023/08/19 07:07:50;;;;;;;;;;;21.40;99.90;;;;;;5078126;28;20040;-75
2023/08/19 07:10:20;;;;;;;16.92;13.30;;;21.40;99.90;;;;;;5075186;28;20035;-75
2023/08/19 07:12:47;;;;;;;20.50;14.00;;;21.40;99.90;;;;;;5095962;28;20052;-75
2023/08/19 07:15:13;;;;;;;16.95;12.75;;;21.40;99.90;;;;;;5096225;28;20047;-75
2023/08/19 07:17:46;;;;;;;15.97;12.97;;;21.40;99.90;;;;;;5096400;28;20048;-75
2023/08/19 07:20:15;;;;;;;18.05;13.38;;;21.40;99.90;;;;;;5078151;28;20059;-75
2023/08/19 07:22:47;;;;;;;16.42;12.75;;;21.40;99.90;;;;;;5085245;28;20404;-74
2023/08/19 07:25:13;;;;;;;16.10;13.27;;;21.50;99.90;;;;;;5097768;28;20044;-76
2023/08/19 07:27:41;;;;;;;16.02;12.43;;;21.50;99.90;;;;;;5084659;28;20071;-74
2023/08/19 07:30:08;;;;;;;17.65;12.48;;;21.50;99.90;;;;;;5091970;28;20066;-74
2023/08/19 07:32:35;;;;;;;16.20;12.27;;;21.60;99.90;;;;;;5075041;28;20059;-74
2023/08/19 07:35:05;;;;;;;14.85;12.32;;;21.60;99.90;;;;;;5093042;28;20052;-75
2023/08/19 07:37:31;;;;;;;13.80;11.57;;;21.60;99.90;;;;;;5097382;28;20105;-76
2023/08/19 07:39:57;;;;;;;15.18;12.35;;;21.80;99.90;;;;;;5096754;28;20398;-74
2023/08/19 07:42:24;;;;;;;17.02;12.48;;;21.80;99.90;;;;;;5095578;28;20044;-75
2023/08/19 07:44:50;;;;;;;16.80;12.43;;;21.90;99.90;;;;;;5077328;28;20480;-76
2023/08/19 07:47:15;;;;;;;13.43;12.07;;;21.90;99.90;;;;;;5075218;28;20091;-75
2023/08/19 07:49:41;;;;;;;15.40;12.20;;;21.90;99.90;;;;;;5076194;28;20090;-74
2023/08/19 07:52:07;;;;;;;13.80;11.77;;;22.00;99.90;;;;;;5112521;28;20135;-76
2023/08/19 07:54:32;;;;;;;16.90;12.23;;;22.10;99.90;;;;;;5076063;28;20036;-75
2023/08/19 07:56:59;;;;;;;18.23;11.50;;;22.10;99.90;;;;;;5079447;28;20037;-74
2023/08/19 07:59:27;;;;;;;14.43;10.82;;;22.10;99.90;;;;;;5082184;28;20039;-75
2023/08/19 08:01:54;;;;;;;16.65;11.57;;;22.20;99.90;;;;;;5080956;28;20036;-75
2023/08/19 08:04:21;;;;;;;13.88;10.82;;;22.20;99.90;;;;;;5062841;28;20045;-75
2023/08/19 08:06:48;;;;;;;16.33;11.15;;;22.20;99.90;;;;;;5080470;28;20049;-75
2023/08/19 08:09:14;;;;;;;13.60;11.10;;;22.30;99.90;;;;;;5078594;28;20383;-75
2023/08/19 08:11:41;;;;;;;16.20;11.23;;;22.30;99.90;;;;;;5088240;28;20047;-76
2023/08/19 08:14:07;;;;;;;14.88;10.93;;;22.30;99.90;;;;;;5094630;28;20474;-75
2023/08/19 08:16:33;;;;;;;15.55;10.23;;;22.40;99.90;;;;;;5089341;28;20131;-75
2023/08/19 08:18:58;;;;;;;14.13;10.00;;;22.40;99.90;;;;;;5076519;28;20049;-75
2023/08/19 08:21:24;;;;;;;13.35;9.70;;;22.40;99.90;;;;;;5076037;28;20051;-75
2023/08/19 08:23:49;;;;;;;13.43;10.23;;;22.50;99.90;;;;;;5076467;28;20410;-75
2023/08/19 08:26:16;;;;;;;12.75;9.82;;;22.50;99.90;;;;;;5075776;28;20040;-75
2023/08/19 08:28:43;;;;;;;11.70;9.00;;;22.60;99.90;;;;;;5074469;28;20052;-75
2023/08/19 08:31:09;;;;;;;12.95;9.70;;;22.60;99.90;;;;;;5075193;28;20500;-75
2023/08/19 08:33:34;;;;;;;15.85;10.13;;;22.70;99.90;;;;;;5075098;28;20045;-75
2023/08/19 08:36:00;;;;;;;12.13;9.70;;;22.70;99.90;;;;;;5074816;28;20041;-75
2023/08/19 08:38:26;;;;;;;14.02;10.07;;;22.80;99.90;;;;;;5081929;28;20040;-76
2023/08/19 08:40:52;;;;;;;12.15;9.40;;;22.80;99.90;;;;;;5082823;28;20039;-75
2023/08/19 08:43:20;;;;;;;10.95;8.55;;;22.90;99.90;;;;;;5083331;28;20121;-75
2023/08/19 08:45:46;;;;;;;15.80;9.52;;;22.90;99.90;;;;;;5090317;28;20047;-75
2023/08/19 08:48:12;;;;;;;12.45;8.82;;;22.90;99.90;;;;;;5087602;28;20549;-76
2023/08/19 08:50:38;;;;;;;11.20;8.60;;;23.00;99.90;;;;;;5097572;28;20059;-75
2023/08/19 08:53:04;;;;;;;15.65;8.98;;;23.10;99.90;;;;;;5091398;28;20040;-75
2023/08/19 08:55:30;;;;;;;16.10;8.40;;;23.20;99.90;;;;;;5098314;28;20379;-74
2023/08/19 08:57:56;;;;;;;9.52;7.72;;;23.30;99.90;;;;;;5082566;28;20045;-75
2023/08/19 09:00:22;;;;;;;22.67;8.88;;;23.30;99.90;;;;;;5082184;28;20161;-75
2023/08/19 09:02:50;;;;;;;10.43;7.07;;;23.50;99.90;;;;;;5094589;28;20051;-76
2023/08/19 09:05:22;;;;;;;15.00;7.38;;;23.60;99.90;;;;;;5075241;28;20123;-75
2023/08/19 09:07:51;;;;;;;10.25;7.30;;;23.70;99.90;;;;;;5085790;28;20040;-77
2023/08/19 09:10:23;;;;;;;13.43;7.32;;;23.90;99.90;;;;;;5093974;28;20486;-74
2023/08/19 09:12:56;;;;;;;11.90;6.95;;;24.10;99.90;;;;;;5085085;28;20044;-76
2023/08/19 09:15:25;;;;;;;9.75;7.22;;;24.40;99.90;;;;;;5086657;28;20097;-74
2023/08/19 09:17:51;;;;;;;9.40;6.53;;;24.60;99.90;;;;;;5081609;28;20084;-75
2023/08/19 09:20:18;;;;;;;12.55;6.32;;;24.80;99.90;;;;;;5082341;28;20051;-76
2023/08/19 09:22:44;;;;;;;;;;;25.00;99.90;;;;;;5085011;28;20410;-75
2023/08/19 09:25:14;;;;;;;8.68;6.03;;;25.20;99.90;;;;;;5088229;28;19931;-74
2023/08/19 09:27:40;;;;;;;7.93;5.80;;;25.40;99.90;;;;;;5091066;28;20054;-75
2023/08/19 09:30:06;;;;;;;7.65;6.03;;;25.50;99.90;;;;;;5092100;28;20462;-76
2023/08/19 09:32:35;;;;;;;9.13;5.95;;;25.50;99.90;;;;;;5090926;28;20040;-76
2023/08/19 09:35:18;;;;;;;11.80;5.97;;;25.50;99.90;;;;;;5092598;28;20055;-76
2023/08/19 09:37:44;;;;;;;9.73;5.50;;;25.50;99.90;;;;;;5083714;28;20405;-75
2023/08/19 09:40:13;;;;;;;16.88;6.68;;;25.50;99.90;;;;;;5095115;28;20043;-77
2023/08/19 09:42:40;;;;;;;10.55;6.20;;;25.40;99.90;;;;;;5083043;28;20040;-75
2023/08/19 09:45:07;;;;;;;14.68;6.32;;;25.40;99.90;;;;;;5093216;28;20044;-75
2023/08/19 09:47:49;;;;;;;8.25;5.70;;;25.40;99.90;;;;;;5091913;28;20053;-75
2023/08/19 09:50:16;;;;;;;7.93;5.63;;;25.40;99.90;;;;;;5084513;28;20044;-75
2023/08/19 09:52:51;;;;;;;10.70;6.13;;;25.50;99.90;;;;;;5088116;28;20032;-75
2023/08/19 09:55:22;;;;;;;9.32;5.47;;;25.50;99.90;;;;;;5088497;28;20051;-75
2023/08/19 09:57:48;;;;;;;7.28;5.30;;;25.60;99.90;;;;;;5087517;28;20386;-75
2023/08/19 10:00:14;;;;;;;11.00;5.82;;;25.70;99.90;;;;;;5090806;28;20036;-75
2023/08/19 10:02:39;;;;;;;8.40;6.55;;;25.90;99.90;;;;;;5090349;28;20082;-75
2023/08/19 10:05:05;;;;;;;9.55;5.40;;;25.90;99.90;;;;;;5088867;28;20046;-74
2023/08/19 10:07:32;;;;;;;7.35;5.53;;;26.00;99.90;;;;;;5073487;28;20101;-75
2023/08/19 10:10:06;;;;;;;;;;;25.90;99.90;;;;;;5092132;28;20051;-75
2023/08/19 10:12:37;;;;;;;9.77;5.68;;;25.90;99.90;;;;;;5075203;28;19920;-75
2023/08/19 10:15:04;;;;;;;8.70;5.55;;;25.80;99.90;;;;;;5074632;28;20036;-74
2023/08/19 10:17:32;;;;;;;10.07;5.47;;;25.70;99.90;;;;;;5080195;28;20056;-74
2023/08/19 10:20:05;;;;;;;11.30;5.97;;;25.60;99.90;;;;;;5085192;28;20048;-75
2023/08/19 10:22:33;;;;;;;10.48;6.07;;;25.50;99.90;;;;;;5092035;28;20040;-75
2023/08/19 10:25:00;;;;;;;8.73;6.00;;;25.40;99.90;;;;;;5087795;28;20036;-75
2023/08/19 10:27:26;;;;;;;9.00;5.87;;;25.30;99.90;;;;;;5090873;28;20040;-75
2023/08/19 10:29:58;;;;;;;10.25;6.00;;;25.20;99.90;;;;;;5089403;28;20491;-75
2023/08/19 10:32:29;;;;;;;13.07;6.70;;;25.10;99.90;;;;;;5084139;28;20079;-75
2023/08/19 10:35:08;;;;;;;14.98;6.28;;;25.00;99.90;;;;;;5085363;28;20036;-76
2023/08/19 10:37:56;;;;;;;11.48;6.00;;;24.90;99.90;;;;;;5106367;28;20040;-75
2023/08/19 10:40:24;;;;;;;12.27;5.93;;;24.90;99.90;;;;;;5065208;28;20510;-75
2023/08/19 10:42:57;;;;;;;10.38;6.43;;;24.80;99.90;;;;;;5092791;28;20123;-75
2023/08/19 10:45:29;;;;;;;13.82;6.30;;;24.80;99.90;;;;;;5093169;28;20090;-73
2023/08/19 10:47:55;;;;;;;10.82;6.25;;;24.90;99.90;;;;;;5077216;28;20462;-76
2023/08/19 10:50:20;;;;;;;12.20;7.10;;;24.90;99.90;;;;;;5074146;28;20039;-76
2023/08/19 10:53:06;;;;;;;13.20;7.13;;;25.00;99.90;;;;;;5083032;28;20040;-75
2023/08/19 10:55:51;;;;;;;11.40;6.57;;;25.20;99.90;;;;;;5086738;28;20093;-76
2023/08/19 10:58:18;;;;;;;14.02;6.75;;;25.30;99.90;;;;;;5113854;27;20052;-76
2023/08/19 11:00:44;;;;;;;9.48;6.50;;;25.40;99.90;;;;;;5089943;28;20043;-74
2023/08/19 11:03:12;;;;;;;14.00;7.03;;;25.50;99.90;;;;;;5091594;28;20036;-75
2023/08/19 11:05:47;;;;;;;9.98;7.00;;;25.50;99.90;;;;;;5089322;28;20150;-75
2023/08/19 11:08:12;;;;;;;8.68;6.78;;;25.50;99.90;;;;;;5091100;28;20071;-74
2023/08/19 11:10:38;;;;;;;14.27;6.68;;;25.50;99.90;;;;;;5087419;28;20044;-75
2023/08/19 11:13:04;;;;;;;10.88;6.65;;;25.40;99.90;;;;;;5087162;28;20043;-74
2023/08/19 11:15:30;;;;;;;10.07;6.70;;;25.40;99.90;;;;;;5090494;28;20473;-75
2023/08/19 11:17:55;;;;;;;10.50;6.72;;;25.30;99.90;;;;;;5082969;28;20041;-75
2023/08/19 11:20:28;;;;;;;10.60;7.20;;;25.20;99.90;;;;;;5078448;28;20049;-76
2023/08/19 11:22:54;;;;;;;10.95;7.93;;;25.30;99.90;;;;;;5103468;28;20134;-75
2023/08/19 11:25:20;;;;;;;11.30;6.57;;;25.40;99.90;;;;;;5087686;28;20040;-76
2023/08/19 11:27:46;;;;;;;17.05;7.07;;;25.60;99.90;;;;;;5095919;28;20054;-75
2023/08/19 11:30:14;;;;;;;11.75;7.68;;;26.00;99.90;;;;;;5090508;28;20044;-76
2023/08/19 11:32:46;;;;;;;13.07;6.88;;;26.30;99.90;;;;;;5092009;28;20040;-76
2023/08/19 11:35:12;;;;;;;10.75;7.18;;;26.70;99.90;;;;;;5085038;28;20040;-75
2023/08/19 11:37:40;;;;;;;14.13;7.05;;;27.30;99.90;;;;;;5091209;28;20055;-75
2023/08/19 11:40:06;;;;;;;12.90;6.60;;;27.70;99.90;;;;;;5089127;28;20039;-75
2023/08/19 11:42:31;;;;;;;14.43;6.10;;;28.20;99.90;;;;;;5090250;28;20090;-75
2023/08/19 11:44:58;;;;;;;12.77;7.13;;;28.50;99.90;;;;;;5085586;28;20113;-75
2023/08/19 11:47:33;;;;;;;12.32;7.40;;;28.70;99.90;;;;;;5087864;28;20059;-77
2023/08/19 11:50:03;;;;;;;15.10;9.07;;;29.00;99.90;;;;;;5088801;28;20051;-77
2023/08/19 11:52:28;;;;;;;11.13;8.50;;;28.90;99.90;;;;;;5089511;28;20160;-75
2023/08/19 11:55:13;;;;;;;13.55;7.68;;;28.80;99.90;;;;;;5101986;28;20067;-76
2023/08/19 11:57:40;;;;;;;15.10;9.18;;;28.60;99.90;;;;;;5096721;28;20520;-76
2023/08/19 12:00:15;;;;;;;12.32;9.30;;;28.40;99.90;;;;;;5092952;28;21334;-76
2023/08/19 12:02:41;;;;;;;14.90;9.25;;;28.30;99.90;;;;;;5095103;28;20169;-76
2023/08/19 12:05:08;;;;;;;12.85;8.80;;;28.10;99.90;;;;;;5096959;28;20123;-74
2023/08/19 12:07:34;;;;;;;15.00;9.77;;;28.20;99.90;;;;;;5091126;28;20048;-74
2023/08/19 12:10:00;;;;;;;16.48;10.45;;;28.30;99.90;;;;;;5089056;28;20071;-74
2023/08/19 12:12:28;;;;;;;19.25;13.27;;;28.30;99.90;;;;;;5093101;28;20130;-74
2023/08/19 12:14:54;;;;;;;16.90;12.13;;;28.20;99.90;;;;;;5086652;28;20071;-74
2023/08/19 12:17:21;;;;;;;23.67;14.88;;;28.10;99.90;;;;;;5083336;28;20052;-73
2023/08/19 12:19:47;;;;;;;20.98;16.95;;;28.00;99.90;;;;;;5095811;28;20493;-74
2023/08/19 12:22:13;;;;;;;25.58;16.40;;;27.80;99.90;;;;;;5095776;28;20050;-73
2023/08/19 12:24:43;;;;;;;20.48;15.23;;;27.60;99.90;;;;;;5088420;28;20507;-73
2023/08/19 12:27:08;;;;;;;23.30;14.27;;;27.50;99.90;;;;;;5095337;28;20481;-73
2023/08/19 12:29:35;;;;;;;20.08;16.63;;;27.30;99.90;;;;;;5094015;28;20098;-73
2023/08/19 12:32:01;;;;;;;18.67;16.55;;;27.20;99.90;;;;;;5092240;28;20115;-74
2023/08/19 12:34:27;;;;;;;28.90;18.73;;;27.10;99.90;;;;;;5117711;27;20124;-74